Ocheyedan, IA

9:33 AM CST on November 24, 2014 (GMT -0600)
Dugout Creek | Change Station
CLOSE
Current Station
Personal Weather Station
Location: Lake Park, IA
Elevation: 1444 ft
Nearby Weather Stations
Active Advisory: Wind Advisory

Elev 1444 ft 43.40 °N, 95.31 °W | Updated 6 seconds ago

Overcast
Overcast
19.2 °F
Feels Like 2 °F
N
24.7
Wind Variable Wind from NNW
Gusts 31.1 mph

Today
High -- | Low -- °F
--% Chance of Precip.
Yesterday
High -- | Low -- °F
Precip. -- in
7:26 AM 4:50 PM
Waxing Crescent, 6% visible
Pressure 29.57 in
Visibility 10.0 miles
Clouds Mostly Cloudy 1900 ft
Overcast 4100 ft
Windchill 2 °F
Dew Point 14 °F
Humidity 78%
Rainfall 0.00 in
Snow Depth Not available.
UV 0.0 out of 12
Pollen .10 out of 12
Air Quality Not available.
Flu Activity Not available.
METAR KOTG 241515Z AUTO 32023G29KT 10SM BKN019 OVC041 M08/M12 A2957 RMK AO1

More Conditions Fewer Conditions

Pressure 29.57 in
Visibility 10.0 miles
Clouds Mostly Cloudy 1900 ft
Overcast 4100 ft
Windchill 2 °F
Dew Point 14 °F
Humidity 78%
Rainfall 0.00 in
Snow Depth Not available.
UV 0.0 out of 12
Pollen .10 out of 12
Air Quality Not available.
Flu Activity Not available.
METAR KOTG 241515Z AUTO 32023G29KT 10SM BKN019 OVC041 M08/M12 A2957 RMK AO1

More Conditions Fewer Conditions

10-Day Weather Forecast

Almanac

Astronomy

Nov. 24, 2014 Rise Set
Actual Time
Civil Twilight
Nautical Twilight
Astronomical Twilight
Moon
Length of Visible Light
Length of Day
Tomorrow will be .
, % of the Moon is Illuminated

Today's Extremes

State Highs State Lows

Community

WunderPhotos

Upload Photos

1,773,361 photos uploaded!

WunderBlogs® & News

Nearby

Air Quality

  Air Quality AQ Index Pollutant
Not available.

Snow Depth

Station Depth Elevation

Earthquake Activity

City Distance Mag. Time & Date
Minimum magnitude displayed is 2.5.

Coastal Water Temperatures

Place Temperature

Nearby Weather Stations